createdAt,value
2016-11-19T00:00:37.010Z,727.94
2016-11-19T00:01:36.994Z,727.88
2016-11-19T00:02:36.976Z,727.76
2016-11-19T00:03:36.966Z,727.88
2016-11-19T00:04:36.942Z,727.8
2016-11-19T00:05:36.926Z,727.77
2016-11-19T00:06:36.915Z,727.71
2016-11-19T00:07:36.890Z,727.85
2016-11-19T00:08:36.880Z,727.87
2016-11-19T00:09:36.863Z,727.8
2016-11-19T00:10:36.846Z,727.75
2016-11-19T00:11:36.829Z,727.72
2016-11-19T00:12:36.812Z,727.85
2016-11-19T00:13:36.795Z,727.83
2016-11-19T00:14:36.777Z,727.77
2016-11-19T00:15:36.753Z,727.84
2016-11-19T00:16:36.743Z,727.72
2016-11-19T00:17:36.719Z,727.83
2016-11-19T00:18:36.703Z,727.81
2016-11-19T00:19:36.685Z,727.82
2016-11-19T00:20:36.675Z,727.88
2016-11-19T00:21:36.651Z,727.83
2016-11-19T00:22:36.634Z,727.75
2016-11-19T00:23:36.617Z,727.74
2016-11-19T00:24:36.600Z,727.75
2016-11-19T00:25:36.583Z,727.72
2016-11-19T00:26:36.573Z,727.76
2016-11-19T00:27:36.548Z,727.51
2016-11-19T00:29:42.896Z,727.75
2016-11-19T00:30:42.877Z,727.63
2016-11-19T00:31:42.859Z,727.73
2016-11-19T00:32:42.843Z,727.75
2016-11-19T00:33:42.826Z,727.68
2016-11-19T00:34:42.808Z,727.73
2016-11-19T00:35:42.791Z,727.64
2016-11-19T00:36:42.773Z,727.64
2016-11-19T00:37:42.757Z,727.66
2016-11-19T00:38:42.740Z,727.61
2016-11-19T00:39:42.723Z,727.65
2016-11-19T00:40:42.706Z,727.63
2016-11-19T00:41:42.688Z,727.81
2016-11-19T00:42:42.671Z,727.76
2016-11-19T00:43:42.654Z,727.62
2016-11-19T00:44:42.637Z,727.66
2016-11-19T00:45:42.619Z,727.82
2016-11-19T00:46:42.603Z,727.69
2016-11-19T00:47:42.585Z,727.67
2016-11-19T00:48:42.575Z,727.65
2016-11-19T00:49:42.551Z,727.61
2016-11-19T00:50:42.541Z,727.51
2016-11-19T00:51:42.524Z,727.6
2016-11-19T00:52:42.506Z,727.52
2016-11-19T00:53:42.489Z,727.69
2016-11-19T00:54:42.473Z,727.51
2016-11-19T00:55:42.450Z,727.46
2016-11-19T00:56:42.438Z,727.44
2016-11-19T00:57:42.414Z,727.57
2016-11-19T00:58:42.397Z,727.68
2016-11-19T00:59:42.387Z,727.61
2016-11-19T01:00:42.370Z,727.64
2016-11-19T01:01:42.355Z,727.52
2016-11-19T01:02:42.329Z,727.56
2016-11-19T01:03:42.319Z,727.44
2016-11-19T01:04:42.303Z,727.47
2016-11-19T01:05:42.285Z,727.72
2016-11-19T01:06:42.268Z,727.46
2016-11-19T01:07:42.250Z,727.47
2016-11-19T01:08:42.233Z,727.53
2016-11-19T01:09:42.216Z,727.55
2016-11-19T01:10:42.192Z,727.59
2016-11-19T01:11:42.175Z,727.51
2016-11-19T01:12:42.165Z,727.55
2016-11-19T01:13:42.142Z,727.52
2016-11-19T01:14:42.123Z,727.43
2016-11-19T01:15:42.106Z,727.53
2016-11-19T01:16:42.097Z,727.56
2016-11-19T01:17:42.074Z,727.6
2016-11-19T01:18:42.055Z,727.6
2016-11-19T01:19:42.045Z,727.54
2016-11-19T01:20:42.029Z,727.4
2016-11-19T01:21:42.004Z,727.49
2016-11-19T01:22:41.987Z,727.45
2016-11-19T01:23:41.977Z,727.58
2016-11-19T01:24:41.961Z,727.47
2016-11-19T01:25:41.943Z,727.4
2016-11-19T01:26:41.927Z,727.41
2016-11-19T01:27:41.910Z,727.55
2016-11-19T01:28:41.893Z,727.51
2016-11-19T01:29:41.876Z,727.44
2016-11-19T01:30:41.859Z,727.5
2016-11-19T01:31:41.843Z,727.24
2016-11-19T01:32:41.827Z,727.38
2016-11-19T01:33:41.801Z,727.44
2016-11-19T01:34:41.786Z,727.35
2016-11-19T01:35:41.775Z,727.3
2016-11-19T01:36:41.750Z,727.62
2016-11-19T01:37:41.741Z,727.47
2016-11-19T01:38:41.724Z,727.38
2016-11-19T01:39:41.701Z,727.47
2016-11-19T01:40:41.689Z,727.42
2016-11-19T01:41:41.665Z,727.31
2016-11-19T01:42:41.656Z,727.3
2016-11-19T01:43:41.638Z,727.38
2016-11-19T01:44:41.622Z,727.26
2016-11-19T01:45:41.605Z,727.37
2016-11-19T01:46:41.589Z,727.45
2016-11-19T01:47:41.565Z,727.25
2016-11-19T01:48:41.555Z,727.5
2016-11-19T01:49:41.531Z,727.38
2016-11-19T01:50:41.522Z,727.23
2016-11-19T01:51:41.505Z,727.28
2016-11-19T01:52:41.488Z,727.44
2016-11-19T01:53:41.471Z,727.34
2016-11-19T01:54:41.447Z,727.27
2016-11-19T01:55:41.430Z,727.33
2016-11-19T01:56:41.419Z,727.15
2016-11-19T01:57:41.403Z,727.16
2016-11-19T01:58:41.385Z,727.27
2016-11-19T01:59:41.368Z,727.32
2016-11-19T02:00:41.351Z,727.25
2016-11-19T02:01:41.333Z,727.25
2016-11-19T02:02:41.310Z,727.21
2016-11-19T02:03:41.300Z,727.25
2016-11-19T02:04:41.284Z,727.17
2016-11-19T02:05:41.267Z,727.12
2016-11-19T02:06:41.250Z,727.16
2016-11-19T02:07:41.234Z,727.18
2016-11-19T02:08:41.211Z,727.23
2016-11-19T02:09:41.194Z,727.2
2016-11-19T02:10:41.176Z,727.3
2016-11-19T02:11:41.160Z,727.23
2016-11-19T02:12:41.150Z,727.2
2016-11-19T02:13:41.126Z,727.3
2016-11-19T02:14:41.110Z,727.18
2016-11-19T02:15:41.101Z,727.15
2016-11-19T02:16:41.083Z,727.27
2016-11-19T02:17:41.061Z,727.26
2016-11-19T02:18:41.052Z,727.26
2016-11-19T02:19:41.035Z,727.26
2016-11-19T02:20:41.018Z,727.23
2016-11-19T02:21:40.998Z,727.2
2016-11-19T02:22:40.980Z,727.21
2016-11-19T02:23:40.968Z,727.23
2016-11-19T02:24:40.945Z,727.15
2016-11-19T02:25:40.936Z,727.17
2016-11-19T02:26:40.912Z,727.08
2016-11-19T02:27:40.902Z,726.86
2016-11-19T02:28:40.886Z,726.96
2016-11-19T02:29:40.862Z,726.95
2016-11-19T02:30:40.853Z,727
2016-11-19T02:31:40.828Z,726.95
2016-11-19T02:32:40.819Z,726.92
2016-11-19T02:33:40.803Z,726.85
2016-11-19T02:34:40.778Z,726.55
2016-11-19T02:35:40.769Z,726.85
2016-11-19T02:36:40.745Z,726.99
2016-11-19T02:37:40.728Z,726.9
2016-11-19T02:38:40.718Z,726.91
2016-11-19T02:39:40.694Z,726.93
2016-11-19T02:40:40.678Z,726.85
2016-11-19T02:41:40.662Z,726.82
2016-11-19T02:42:40.650Z,726.82
2016-11-19T02:43:40.633Z,726.91
2016-11-19T02:44:40.617Z,726.9
2016-11-19T02:45:40.599Z,726.85
2016-11-19T02:46:40.582Z,726.79
2016-11-19T02:47:40.558Z,726.71
2016-11-19T02:48:40.542Z,726.76
2016-11-19T02:49:40.531Z,726.71
2016-11-19T02:50:40.513Z,726.69
2016-11-19T02:51:40.497Z,726.78
2016-11-19T02:52:40.480Z,726.87
2016-11-19T02:53:40.455Z,726.67
2016-11-19T02:54:40.445Z,726.69
2016-11-19T02:55:40.423Z,726.77
2016-11-19T02:56:40.411Z,726.71
2016-11-19T02:57:40.387Z,726.76
2016-11-19T02:58:40.378Z,726.78
2016-11-19T02:59:40.361Z,726.71
2016-11-19T03:00:40.337Z,726.61
2016-11-19T03:01:40.320Z,726.59
2016-11-19T03:02:40.310Z,726.63
2016-11-19T03:03:40.294Z,726.53
2016-11-19T03:04:40.277Z,726.54
2016-11-19T03:05:40.260Z,726.55
2016-11-19T03:06:40.236Z,726.58
2016-11-19T03:07:40.219Z,726.49
2016-11-19T03:08:40.208Z,726.5
2016-11-19T03:09:40.191Z,726.48
2016-11-19T03:10:40.167Z,726.52
2016-11-19T03:11:40.156Z,726.58
2016-11-19T03:12:40.139Z,726.49
2016-11-19T03:13:40.116Z,726.51
2016-11-19T03:14:40.105Z,726.55
2016-11-19T03:15:40.087Z,726.45
2016-11-19T03:16:40.063Z,726.41
2016-11-19T03:17:40.046Z,726.39
2016-11-19T03:18:40.036Z,726.41
2016-11-19T03:19:40.019Z,726.37
2016-11-19T03:20:40.002Z,726.39
2016-11-19T03:21:39.985Z,726.36
2016-11-19T03:22:39.967Z,726.37
2016-11-19T03:23:39.949Z,726.5
2016-11-19T03:24:39.926Z,726.39
2016-11-19T03:25:39.915Z,726.28
2016-11-19T03:26:39.892Z,726.33
2016-11-19T03:27:39.882Z,726.38
2016-11-19T03:28:39.858Z,726.34
2016-11-19T03:29:39.847Z,726.42
2016-11-19T03:30:39.830Z,726.34
2016-11-19T03:31:39.814Z,726.33
2016-11-19T03:32:39.790Z,726.47
2016-11-19T03:33:39.779Z,726.4
2016-11-19T03:34:39.762Z,726.4
2016-11-19T03:35:39.739Z,726.38
2016-11-19T03:36:39.728Z,726.34
2016-11-19T03:37:39.704Z,726.29
2016-11-19T03:38:39.687Z,726.35
2016-11-19T03:39:39.677Z,726.42
2016-11-19T03:40:39.659Z,726.48
2016-11-19T03:41:39.636Z,726.41
2016-11-19T03:42:39.625Z,726.45
2016-11-19T03:43:39.601Z,726.41
2016-11-19T03:44:39.590Z,726.32
2016-11-19T03:45:39.573Z,726.35
2016-11-19T03:46:39.556Z,726.41
2016-11-19T03:47:39.538Z,726.36
2016-11-19T03:48:39.514Z,726.38
2016-11-19T03:49:39.504Z,726.49
2016-11-19T03:50:39.486Z,726.32
2016-11-19T03:51:39.461Z,726.37
2016-11-19T03:52:39.443Z,726.43
2016-11-19T03:53:39.433Z,726.4
2016-11-19T03:54:39.408Z,726.44
2016-11-19T03:55:39.389Z,726.48
2016-11-19T03:56:39.372Z,726.26
2016-11-19T03:57:39.354Z,726.43
2016-11-19T03:58:39.336Z,726.38
2016-11-19T03:59:39.326Z,726.4
2016-11-19T04:00:39.308Z,726.37
2016-11-19T04:01:39.284Z,726.31
2016-11-19T04:02:39.266Z,726.4
2016-11-19T04:03:39.255Z,726.28
2016-11-19T04:04:39.238Z,726.32
2016-11-19T04:05:39.213Z,726.3
2016-11-19T04:06:39.202Z,726.44
2016-11-19T04:07:39.184Z,726.4
2016-11-19T04:08:39.161Z,726.44
2016-11-19T04:09:39.142Z,726.39
2016-11-19T04:10:39.131Z,726.31
2016-11-19T04:11:39.114Z,726.3
2016-11-19T04:12:39.089Z,726.32
2016-11-19T04:13:39.071Z,726.36
2016-11-19T04:14:39.054Z,726.27
2016-11-19T04:15:39.036Z,726.17
2016-11-19T04:16:39.019Z,726.18
2016-11-19T04:17:39.000Z,726.2
2016-11-19T04:18:38.983Z,726.34
2016-11-19T04:19:38.971Z,726.33
2016-11-19T04:20:38.953Z,726.31
2016-11-19T04:21:38.935Z,726.24
2016-11-19T04:22:38.918Z,726.25
2016-11-19T04:23:38.893Z,726.13
2016-11-19T04:24:38.876Z,726.27
2016-11-19T04:25:38.857Z,726.2
2016-11-19T04:26:38.847Z,726.36
2016-11-19T04:27:38.824Z,726.37
2016-11-19T04:28:38.805Z,726.25
2016-11-19T04:29:38.787Z,726.05
2016-11-19T04:30:38.769Z,726.22
2016-11-19T04:31:38.752Z,726.34
2016-11-19T04:32:38.735Z,726.22
2016-11-19T04:33:38.724Z,726.3
2016-11-19T04:34:38.707Z,726.1
2016-11-19T04:35:38.682Z,726.15
2016-11-19T04:36:38.671Z,726.18
2016-11-19T04:37:38.653Z,726.23
2016-11-19T04:38:38.636Z,726.19
2016-11-19T04:39:38.611Z,726.17
2016-11-19T04:40:38.594Z,726.15
2016-11-19T04:41:38.576Z,726.13
2016-11-19T04:42:38.565Z,726.21
2016-11-19T04:43:38.548Z,726.19
2016-11-19T04:44:38.531Z,726.14
2016-11-19T04:45:38.513Z,726.17
2016-11-19T04:46:38.488Z,726.13
2016-11-19T04:47:38.472Z,726.13
2016-11-19T04:48:38.461Z,726.25
2016-11-19T04:49:38.438Z,726.11
2016-11-19T04:50:38.420Z,726.18
2016-11-19T04:51:38.408Z,726.18
2016-11-19T04:52:38.391Z,726.22
2016-11-19T04:53:38.368Z,726.08
2016-11-19T04:54:38.350Z,726.25
2016-11-19T04:55:38.339Z,726
2016-11-19T04:56:38.322Z,726.09
2016-11-19T04:57:38.297Z,726.3
2016-11-19T04:58:38.279Z,726.34
2016-11-19T04:59:38.268Z,726.38
2016-11-19T05:00:38.251Z,726.23
2016-11-19T05:01:38.226Z,726.31
2016-11-19T05:02:38.210Z,726.23
2016-11-19T05:03:38.192Z,726.21
2016-11-19T05:04:38.175Z,726.23
2016-11-19T05:05:38.164Z,726.32
2016-11-19T05:06:38.141Z,726.22
2016-11-19T05:07:38.130Z,726.07
2016-11-19T05:08:38.112Z,726.15
2016-11-19T05:09:38.095Z,726.22
2016-11-19T05:10:38.078Z,726.29
2016-11-19T05:11:38.052Z,726.15
2016-11-19T05:12:38.036Z,726.2
2016-11-19T05:13:38.018Z,726.28
2016-11-19T05:14:38.008Z,726.17
2016-11-19T05:15:37.984Z,726.24
2016-11-19T05:16:37.966Z,726.04
2016-11-19T05:17:37.955Z,726.09
2016-11-19T05:18:37.931Z,726.24
2016-11-19T05:19:37.919Z,726.13
2016-11-19T05:20:37.902Z,726.22
2016-11-19T05:21:37.878Z,726.24
2016-11-19T05:22:37.858Z,726.25
2016-11-19T05:23:37.848Z,726.15
2016-11-19T05:24:37.831Z,726.14
2016-11-19T05:25:37.813Z,726.19
2016-11-19T05:26:37.795Z,726.17
2016-11-19T05:27:37.778Z,726.12
2016-11-19T05:28:37.753Z,726.27
2016-11-19T05:29:37.743Z,726.15
2016-11-19T05:30:37.725Z,726.1
2016-11-19T05:31:37.701Z,726.11
2016-11-19T05:32:37.683Z,726
2016-11-19T05:33:37.666Z,726.02
2016-11-19T05:34:37.655Z,726.07
2016-11-19T05:35:37.632Z,726.12
2016-11-19T05:36:37.615Z,726.24
2016-11-19T05:37:37.603Z,726.14
2016-11-19T05:38:37.586Z,726.14
2016-11-19T05:39:37.562Z,726.13
2016-11-19T05:40:37.552Z,726.06
2016-11-19T05:41:37.528Z,726.07
2016-11-19T05:42:37.511Z,726.28
2016-11-19T05:43:37.499Z,726.13
2016-11-19T05:44:37.481Z,726.09
2016-11-19T05:45:37.458Z,726.2
2016-11-19T05:46:37.447Z,726.06
2016-11-19T05:47:37.422Z,726.12
2016-11-19T05:48:37.403Z,726.13
2016-11-19T05:49:37.386Z,726.19
2016-11-19T05:50:37.370Z,726.16
2016-11-19T05:51:37.358Z,726.19
2016-11-19T05:52:37.340Z,726.15
2016-11-19T05:53:37.322Z,726.05
2016-11-19T05:54:37.299Z,726.03
2016-11-19T05:55:37.286Z,726.12
2016-11-19T05:56:37.269Z,726.1
2016-11-19T05:57:37.252Z,726.04
2016-11-19T05:58:37.228Z,725.99
2016-11-19T05:59:37.210Z,726
2016-11-19T06:00:37.198Z,726.16
2016-11-19T06:01:37.181Z,725.99
2016-11-19T06:02:37.163Z,726.25
2016-11-19T06:03:37.145Z,726
2016-11-19T06:04:37.128Z,726.14
2016-11-19T06:05:37.104Z,726.15
2016-11-19T06:06:37.085Z,726.13
2016-11-19T06:07:37.071Z,726.19
2016-11-19T06:08:37.050Z,726.14
2016-11-19T06:09:37.032Z,726.22
2016-11-19T06:10:37.015Z,726.19
2016-11-19T06:11:36.997Z,726.19
2016-11-19T06:12:36.979Z,726.15
2016-11-19T06:13:36.961Z,726.06
2016-11-19T06:14:36.950Z,726.1
2016-11-19T06:15:36.933Z,726.17
2016-11-19T06:16:36.915Z,726.14
2016-11-19T06:17:36.889Z,726.2
2016-11-19T06:18:36.880Z,726.36
2016-11-19T06:19:36.855Z,726.3
2016-11-19T06:20:36.836Z,726.14
2016-11-19T06:21:36.825Z,726.18
2016-11-19T06:22:36.807Z,726.18
2016-11-19T06:23:36.789Z,726.24
2016-11-19T06:24:36.765Z,726.16
2016-11-19T06:25:36.746Z,726.13
2016-11-19T06:26:36.728Z,725.93
2016-11-19T06:27:36.741Z,726.26
2016-11-19T06:28:36.698Z,726.35
2016-11-19T06:29:36.676Z,726.17
2016-11-19T06:30:36.656Z,726.15
2016-11-19T06:31:36.637Z,726.09
2016-11-19T06:32:36.628Z,725.94
2016-11-19T06:33:36.601Z,726.03
2016-11-19T06:34:36.589Z,726.21
2016-11-19T06:35:36.565Z,726.06
2016-11-19T06:36:36.554Z,726.08
2016-11-19T06:37:36.530Z,726.08
2016-11-19T06:38:36.518Z,726.12
2016-11-19T06:39:36.492Z,726.04
2016-11-19T06:40:36.475Z,726.22
2016-11-19T06:41:36.457Z,726.07
2016-11-19T06:42:36.438Z,726.13
2016-11-19T06:43:36.427Z,726.17
2016-11-19T06:44:36.409Z,726.15
2016-11-19T06:45:36.385Z,726.02
2016-11-19T06:46:36.366Z,726.16
2016-11-19T06:47:36.348Z,726.16
2016-11-19T06:48:36.331Z,726.27
2016-11-19T06:49:36.312Z,726.27
2016-11-19T06:50:36.301Z,726.29
2016-11-19T06:51:36.284Z,726.26
2016-11-19T06:52:36.259Z,726.17
2016-11-19T06:53:36.241Z,726.06
2016-11-19T06:54:36.230Z,726.5
2016-11-19T06:55:36.205Z,726.14
2016-11-19T06:56:36.195Z,726.15
2016-11-19T06:57:36.176Z,726.1
2016-11-19T06:58:36.158Z,726.23
2016-11-19T06:59:36.140Z,726.14
2016-11-19T07:00:36.115Z,726.26
2016-11-19T07:01:36.097Z,726.19
2016-11-19T07:02:36.080Z,726.14
2016-11-19T07:03:36.062Z,726.15
2016-11-19T07:04:36.044Z,725.8
2016-11-19T07:05:36.025Z,726.08
2016-11-19T07:06:36.007Z,725.97
2016-11-19T07:07:35.989Z,725.91
2016-11-19T07:08:35.977Z,726.16
2016-11-19T07:09:35.952Z,726.08
2016-11-19T07:10:35.934Z,726.25
2016-11-19T07:11:35.924Z,726.19
2016-11-19T07:12:35.905Z,726.29
2016-11-19T07:13:35.887Z,726.13
2016-11-19T07:14:35.863Z,726.21
2016-11-19T07:15:35.844Z,726.1
2016-11-19T07:16:35.825Z,726.24
2016-11-19T07:17:35.809Z,726.19
2016-11-19T07:18:35.797Z,726.23
2016-11-19T07:19:35.772Z,726.23
2016-11-19T07:20:35.755Z,726.17
2016-11-19T07:21:35.738Z,726.27
2016-11-19T07:22:35.727Z,726.25
2016-11-19T07:23:35.709Z,726.21
2016-11-19T07:24:35.692Z,726.2
2016-11-19T07:25:35.669Z,726.19
2016-11-19T07:26:35.658Z,726.3
2016-11-19T07:27:35.640Z,726.29
2016-11-19T07:28:35.617Z,726.32
2016-11-19T07:29:35.600Z,726.29
2016-11-19T07:30:35.582Z,726.3
2016-11-19T07:31:35.570Z,726.28
2016-11-19T07:32:35.547Z,726.25
2016-11-19T07:33:35.530Z,726.2
2016-11-19T07:34:35.519Z,726.13
2016-11-19T07:35:35.502Z,726.23
2016-11-19T07:36:35.479Z,726.29
2016-11-19T07:37:35.462Z,726.18
2016-11-19T07:38:35.450Z,726.23
2016-11-19T07:39:35.427Z,726.25
2016-11-19T07:40:35.413Z,726.25
2016-11-19T07:41:35.391Z,726.19
2016-11-19T07:42:35.382Z,726.15
2016-11-19T07:43:35.360Z,726.17
2016-11-19T07:44:35.349Z,726.15
2016-11-19T07:45:35.332Z,726.12
2016-11-19T07:46:35.315Z,726.11
2016-11-19T07:47:35.291Z,726.09
2016-11-19T07:48:35.276Z,726.12
2016-11-19T07:49:35.265Z,726.09
2016-11-19T07:50:35.241Z,726.12
2016-11-19T07:51:35.232Z,726.03
2016-11-19T07:52:35.215Z,725.96
2016-11-19T07:53:35.192Z,726
2016-11-19T07:54:35.175Z,726.06
2016-11-19T07:55:35.160Z,725.97
2016-11-19T07:56:35.148Z,726.01
2016-11-19T07:57:35.125Z,726.04
2016-11-19T07:58:35.110Z,725.96
2016-11-19T07:59:35.093Z,725.99
2016-11-19T08:00:35.082Z,726.03
2016-11-19T08:01:35.059Z,726.02
2016-11-19T08:02:35.050Z,726.01
2016-11-19T08:03:35.027Z,725.98
2016-11-19T08:04:35.011Z,725.91
2016-11-19T08:05:34.995Z,725.9
2016-11-19T08:06:34.985Z,725.91
2016-11-19T08:07:34.967Z,725.87
2016-11-19T08:08:34.945Z,725.94
2016-11-19T08:09:34.936Z,725.87
2016-11-19T08:10:34.912Z,725.85
2016-11-19T08:11:34.904Z,725.8
2016-11-19T08:12:34.881Z,725.79
2016-11-19T08:13:34.872Z,725.81
2016-11-19T08:14:34.856Z,725.87
2016-11-19T08:15:34.832Z,725.9
2016-11-19T08:16:34.816Z,725.92
2016-11-19T08:17:34.801Z,725.83
2016-11-19T08:18:34.785Z,725.81
2016-11-19T08:19:34.775Z,725.78
2016-11-19T08:20:34.752Z,725.81
2016-11-19T08:21:34.735Z,725.88
2016-11-19T08:22:34.720Z,725.85
2016-11-19T08:23:34.705Z,725.86
2016-11-19T08:24:34.691Z,725.85
2016-11-19T08:25:34.671Z,725.83
2016-11-19T08:26:34.655Z,725.83
2016-11-19T08:27:34.640Z,725.85
2016-11-19T08:28:34.625Z,725.91
2016-11-19T08:29:34.615Z,725.93
2016-11-19T08:30:34.591Z,725.95
2016-11-19T08:31:34.577Z,725.94
2016-11-19T08:32:34.561Z,725.82
2016-11-19T08:33:34.546Z,725.78
2016-11-19T08:34:34.530Z,725.79
2016-11-19T08:35:34.520Z,725.83
2016-11-19T08:36:34.504Z,725.81
2016-11-19T08:37:34.488Z,725.82
2016-11-19T08:38:34.473Z,725.84
2016-11-19T08:39:34.457Z,725.81
2016-11-19T08:40:34.434Z,725.77
2016-11-19T08:41:34.424Z,725.8
2016-11-19T08:42:34.400Z,725.79
2016-11-19T08:43:34.383Z,725.8
2016-11-19T08:44:34.375Z,725.83
2016-11-19T08:45:34.352Z,725.81
2016-11-19T08:46:34.336Z,725.8
2016-11-19T08:47:34.326Z,725.83
2016-11-19T08:48:34.310Z,725.84
2016-11-19T08:49:34.287Z,725.76
2016-11-19T08:50:34.273Z,725.81
2016-11-19T08:51:34.262Z,725.82
2016-11-19T08:52:34.241Z,725.84
2016-11-19T08:53:34.224Z,725.91
2016-11-19T08:54:34.215Z,725.9
2016-11-19T08:55:34.199Z,725.78
2016-11-19T08:56:34.185Z,725.79
2016-11-19T08:57:34.162Z,725.78
2016-11-19T08:58:34.153Z,725.87
2016-11-19T08:59:34.138Z,725.89
2016-11-19T09:00:34.123Z,725.9
2016-11-19T09:01:34.102Z,725.91
2016-11-19T09:02:34.085Z,725.8
2016-11-19T09:03:34.071Z,725.75
2016-11-19T09:04:34.055Z,725.84
2016-11-19T09:05:34.046Z,725.86
2016-11-19T09:06:34.024Z,725.88
2016-11-19T09:07:34.009Z,725.9
2016-11-19T09:08:33.996Z,725.8
2016-11-19T09:09:33.979Z,725.76
2016-11-19T09:10:33.964Z,725.76
2016-11-19T09:11:33.949Z,725.77
2016-11-19T09:12:33.942Z,725.79
2016-11-19T09:13:33.926Z,725.77
2016-11-19T09:14:33.905Z,725.8
2016-11-19T09:15:33.896Z,725.85
2016-11-19T09:16:33.872Z,725.87
2016-11-19T09:17:33.858Z,725.82
2016-11-19T09:18:33.850Z,725.83
2016-11-19T09:19:33.836Z,725.79
2016-11-19T09:20:33.812Z,725.8
2016-11-19T09:21:33.797Z,725.86
2016-11-19T09:22:33.783Z,725.81
2016-11-19T09:23:33.767Z,725.84
2016-11-19T09:24:33.752Z,725.8
2016-11-19T09:25:33.743Z,725.83
2016-11-19T09:26:33.722Z,725.87
2016-11-19T09:27:33.712Z,725.85
2016-11-19T09:28:33.689Z,725.9
2016-11-19T09:29:33.681Z,725.91
2016-11-19T09:30:33.666Z,726.01
2016-11-19T09:31:33.650Z,725.93
2016-11-19T09:32:33.629Z,725.88
2016-11-19T09:33:33.614Z,725.9
2016-11-19T09:34:33.605Z,725.92
2016-11-19T09:35:33.589Z,725.99
2016-11-19T09:36:33.566Z,725.92
2016-11-19T09:37:33.559Z,726.05
2016-11-19T09:38:33.536Z,726
2016-11-19T09:39:33.520Z,726.05
2016-11-19T09:40:33.512Z,726.03
2016-11-19T09:41:33.496Z,726.05
2016-11-19T09:42:33.474Z,726.05
2016-11-19T09:43:33.465Z,726.01
2016-11-19T09:44:33.451Z,726.04
2016-11-19T09:45:33.435Z,726.03
2016-11-19T09:46:33.420Z,726.1
2016-11-19T09:47:33.397Z,726.12
2016-11-19T09:48:33.389Z,726.09
2016-11-19T09:49:33.375Z,726.11
2016-11-19T09:50:33.351Z,726.17
2016-11-19T09:51:33.342Z,725.93
2016-11-19T09:52:33.326Z,726.03
2016-11-19T09:53:33.310Z,726.04
2016-11-19T09:54:33.294Z,726.09
2016-11-19T09:55:33.271Z,726
2016-11-19T09:56:33.254Z,726.03
2016-11-19T09:57:33.238Z,726.05
2016-11-19T09:58:33.230Z,725.96
2016-11-19T09:59:33.207Z,726.02
2016-11-19T10:00:33.190Z,726.03
2016-11-19T10:01:33.175Z,726.03
2016-11-19T10:02:33.167Z,725.95
2016-11-19T10:03:33.144Z,725.84
2016-11-19T10:04:33.134Z,725.87
2016-11-19T10:05:33.118Z,725.9
2016-11-19T10:06:33.102Z,725.95
2016-11-19T10:07:33.078Z,725.91
2016-11-19T10:08:33.062Z,726.02
2016-11-19T10:09:33.046Z,725.96
2016-11-19T10:10:33.038Z,725.96
2016-11-19T10:11:33.018Z,725.97
2016-11-19T10:12:33.002Z,725.91
2016-11-19T10:13:32.978Z,725.88
2016-11-19T10:14:32.963Z,725.91
2016-11-19T10:15:32.951Z,725.89
2016-11-19T10:16:32.935Z,725.91
2016-11-19T10:17:32.919Z,725.95
2016-11-19T10:18:32.895Z,725.86
2016-11-19T10:19:32.881Z,725.82
2016-11-19T10:20:32.869Z,725.95
2016-11-19T10:21:32.852Z,725.96
2016-11-19T10:22:32.829Z,725.91
2016-11-19T10:23:32.812Z,725.86
2016-11-19T10:24:32.795Z,725.87
2016-11-19T10:25:32.780Z,726.02
2016-11-19T10:26:32.769Z,726
2016-11-19T10:27:32.756Z,725.88
2016-11-19T10:28:32.738Z,725.87
2016-11-19T10:29:32.721Z,725.9
2016-11-19T10:30:32.705Z,725.85
2016-11-19T10:31:32.689Z,725.91
2016-11-19T10:32:32.674Z,725.87
2016-11-19T10:33:32.657Z,725.86
2016-11-19T10:34:32.641Z,725.87
2016-11-19T10:35:32.618Z,725.86
2016-11-19T10:36:32.610Z,725.85
2016-11-19T10:37:32.593Z,725.9
2016-11-19T10:38:32.570Z,725.92
2016-11-19T10:39:32.561Z,725.91
2016-11-19T10:40:32.537Z,725.83
2016-11-19T10:41:32.521Z,725.8
2016-11-19T10:42:32.504Z,725.72
2016-11-19T10:43:32.487Z,725.74
2016-11-19T10:44:32.475Z,725.81
2016-11-19T10:45:32.458Z,725.97
2016-11-19T10:46:32.441Z,725.89
2016-11-19T10:47:32.424Z,725.69
2016-11-19T10:48:32.398Z,725.59
2016-11-19T10:49:32.387Z,725.62
2016-11-19T10:50:32.364Z,725.82
2016-11-19T10:51:32.352Z,725.92
2016-11-19T10:52:32.328Z,725.95
2016-11-19T10:53:32.321Z,725.89
2016-11-19T10:54:32.300Z,725.69
2016-11-19T10:55:32.274Z,725.34
2016-11-19T10:56:32.259Z,725.57
2016-11-19T10:57:32.239Z,725.77
2016-11-19T10:58:32.229Z,725.73
2016-11-19T10:59:32.211Z,725.66
2016-11-19T11:00:32.186Z,725.67
2016-11-19T11:01:32.169Z,725.49
2016-11-19T11:02:32.150Z,725.39
2016-11-19T11:03:32.133Z,725.39
2016-11-19T11:04:32.123Z,725.65
2016-11-19T11:05:32.105Z,725.8
2016-11-19T11:06:32.087Z,725.76
2016-11-19T11:07:32.064Z,725.63
2016-11-19T11:08:32.053Z,725.53
2016-11-19T11:09:32.036Z,725.4
2016-11-19T11:10:32.020Z,725.41
2016-11-19T11:11:32.002Z,725.47
2016-11-19T11:12:31.984Z,725.51
2016-11-19T11:13:31.966Z,725.45
2016-11-19T11:14:31.943Z,725.48
2016-11-19T11:15:31.925Z,725.4
2016-11-19T11:16:31.915Z,725.35
2016-11-19T11:17:31.896Z,725.36
2016-11-19T11:18:31.873Z,725.39
2016-11-19T11:19:31.855Z,725.43
2016-11-19T11:20:31.839Z,725.46
2016-11-19T11:21:31.828Z,725.47
2016-11-19T11:22:31.811Z,725.47
2016-11-19T11:23:31.787Z,725.41
2016-11-19T11:24:31.769Z,725.29
2016-11-19T11:25:31.752Z,725.33
2016-11-19T11:26:31.735Z,725.4
2016-11-19T11:27:31.718Z,725.45
2016-11-19T11:28:31.706Z,725.51
2016-11-19T11:29:31.682Z,725.58
2016-11-19T11:30:31.665Z,725.53
2016-11-19T11:31:31.648Z,725.38
2016-11-19T11:32:31.637Z,725.35
2016-11-19T11:33:31.620Z,725.41
2016-11-19T11:34:31.595Z,725.48
2016-11-19T11:35:31.584Z,725.43
2016-11-19T11:36:31.561Z,725.42
2016-11-19T11:37:31.543Z,725.46
2016-11-19T11:38:31.526Z,725.43
2016-11-19T11:39:31.505Z,725.54
2016-11-19T11:40:31.487Z,725.44
2016-11-19T11:41:31.475Z,725.38
2016-11-19T11:42:31.455Z,725.49
2016-11-19T11:43:31.437Z,725.49
2016-11-19T11:44:31.418Z,725.41
2016-11-19T11:45:31.399Z,725.39
2016-11-19T11:46:31.379Z,725.31
2016-11-19T11:47:31.360Z,725.3
2016-11-19T11:48:31.340Z,725.4
2016-11-19T11:49:31.320Z,725.4
2016-11-19T11:50:31.294Z,725.56
2016-11-19T11:51:31.280Z,725.39
2016-11-19T11:52:31.254Z,725.36
2016-11-19T11:53:31.232Z,725.31
2016-11-19T11:54:31.212Z,725.26
2016-11-19T11:55:31.292Z,725.43
2016-11-19T11:56:31.173Z,725.66
2016-11-19T11:57:31.159Z,725.62
2016-11-19T11:58:31.131Z,725.28
2016-11-19T11:59:31.117Z,725.15
2016-11-19T12:00:31.097Z,725.09
2016-11-19T12:01:31.075Z,725.03
2016-11-19T12:02:31.054Z,725.13
2016-11-19T12:03:31.028Z,725.4
2016-11-19T12:04:31.012Z,725.46
2016-11-19T12:05:30.991Z,725.45
2016-11-19T12:06:30.970Z,725.21
2016-11-19T12:07:30.949Z,725.25
2016-11-19T12:08:30.927Z,725.12
2016-11-19T12:09:30.905Z,725.13
2016-11-19T12:10:30.884Z,725.08
2016-11-19T12:11:30.856Z,725.46
2016-11-19T12:12:30.841Z,725.42
2016-11-19T12:13:30.813Z,725.57
2016-11-19T12:14:30.790Z,725.35
2016-11-19T12:15:30.775Z,725.33
2016-11-19T12:16:30.753Z,725.28
2016-11-19T12:17:30.725Z,725.33
2016-11-19T12:18:30.709Z,725.08
2016-11-19T12:19:30.687Z,725.28
2016-11-19T12:20:30.658Z,725.31
2016-11-19T12:21:30.636Z,725.27
2016-11-19T12:22:30.621Z,725.25
2016-11-19T12:23:30.590Z,725.07
2016-11-19T12:24:30.575Z,724.97
2016-11-19T12:25:30.546Z,724.97
2016-11-19T12:26:30.524Z,724.95
2016-11-19T12:27:30.500Z,724.86
2016-11-19T12:28:30.486Z,725.05
2016-11-19T12:29:30.463Z,725.17
2016-11-19T12:30:30.440Z,725.13
2016-11-19T12:31:30.411Z,725.09
2016-11-19T12:32:30.395Z,725.18